KSGR/SGR METAR and TAF weather

Enter ICAO airport designator
Station Type Date Time Source
KSGR METAR 2021/03/07 22:53 UTC NOAA

KSGR 072253Z 10008KT 10SM CLR 20/01 A3033 RMK AO2 SLP272 T02000011


Station Type Date Time Source
KSGR Decoded METAR 2021/03/07 22:53 UTC NOAA

SUGARLAND REGIONAL AIRPORT, TX, United States (KSGR) 29-37N 095-39W
Mar 07, 2021 - 05:53 PM EST / 2021.03.07 2253 UTC
Wind: from the E (100 degrees) at 9 MPH (8 KT):0
Visibility: 10 mile(s):0
Sky conditions: clear
Temperature: 68.0 F (20.0 C)
Dew Point: 34.0 F (1.1 C)
Relative Humidity: 28%
Pressure (altimeter): 30.33 in. Hg (1027 hPa)
ob: KSGR 072253Z 10008KT 10SM CLR 20/01 A3033 RMK AO2 SLP272 T02000011
cycle: 23

Station Type Date Time Source
KSGR TAF 2021/03/07 18:28 UTC NOAA

TAF KSGR 071726Z 0718/0818 11011KT P6SM SKC
FM072200 12008KT P6SM FEW250
FM080300 VRB04KT P6SM FEW250
FM081400 09006KT P6SM SCT025
FM081700 11007KT P6SM SCT035

Example: see airport list